Terminal Aerodrome Forecast
Issued by NWS Newport/Morehead City, NC

Home | Current Version | Previous Version | Text Only | Print | Product List | Glossary Off
Versions: 1 2 3 4 5 6 7 8 9 10 11 12 13 14 15 16 17 18 19 20 21 22 23 24

315
FTUS42 KMHX 011404 AAA
TAFEWN
TAF AMD
KEWN 011404Z 0114/0212 15007KT P6SM SCT025 BKN040
     FM011700 18010G18KT P6SM BKN040
     FM020600 20007KT P6SM VCSH SCT007 BKN030=

USA.gov is the U.S. government's official web portal to all federal, state and local government web resources and services.